sensor_id;sensor_type;location;lat;lon;timestamp;pressure;altitude;pressure_sealevel;temperature;humidity
62592;BME280;48659;41.622;2.276;2024-01-15T00:00:10;99243.18;;;11.72;47.12
62592;BME280;48659;41.622;2.276;2024-01-15T00:02:39;99242.51;;;11.20;46.75
62592;BME280;48659;41.622;2.276;2024-01-15T00:05:07;99239.40;;;11.30;47.25
62592;BME280;48659;41.622;2.276;2024-01-15T00:07:38;99243.95;;;10.21;48.73
62592;BME280;48659;41.622;2.276;2024-01-15T00:10:06;99242.78;;;11.24;48.19
62592;BME280;48659;41.622;2.276;2024-01-15T00:12:39;99251.98;;;10.31;48.45
62592;BME280;48659;41.622;2.276;2024-01-15T00:15:08;99252.04;;;11.21;47.80
62592;BME280;48659;41.622;2.276;2024-01-15T00:17:39;99256.83;;;11.10;47.17
62592;BME280;48659;41.622;2.276;2024-01-15T00:20:08;99258.68;;;10.78;48.86
62592;BME280;48659;41.622;2.276;2024-01-15T00:22:40;99257.43;;;7.13;55.08
62592;BME280;48659;41.622;2.276;2024-01-15T00:25:07;99256.76;;;8.12;54.96
62592;BME280;48659;41.622;2.276;2024-01-15T00:27:39;99255.66;;;8.58;52.66
62592;BME280;48659;41.622;2.276;2024-01-15T00:30:07;99257.40;;;10.67;49.41
62592;BME280;48659;41.622;2.276;2024-01-15T00:32:38;99259.50;;;9.65;50.38
62592;BME280;48659;41.622;2.276;2024-01-15T00:35:05;99258.89;;;10.16;50.58
62592;BME280;48659;41.622;2.276;2024-01-15T00:37:38;99261.33;;;9.13;51.48
62592;BME280;48659;41.622;2.276;2024-01-15T00:40:07;99262.32;;;10.42;50.21
62592;BME280;48659;41.622;2.276;2024-01-15T00:42:40;99258.17;;;9.77;49.88
62592;BME280;48659;41.622;2.276;2024-01-15T00:45:08;99255.98;;;10.50;50.43
62592;BME280;48659;41.622;2.276;2024-01-15T00:47:38;99250.21;;;8.76;53.24
62592;BME280;48659;41.622;2.276;2024-01-15T00:50:06;99250.29;;;9.60;52.13
62592;BME280;48659;41.622;2.276;2024-01-15T00:52:39;99249.57;;;8.54;52.60
62592;BME280;48659;41.622;2.276;2024-01-15T00:55:07;99246.50;;;9.39;51.68
62592;BME280;48659;41.622;2.276;2024-01-15T00:57:34;99237.74;;;9.23;51.83
62592;BME280;48659;41.622;2.276;2024-01-15T01:00:02;99227.37;;;8.56;53.63
62592;BME280;48659;41.622;2.276;2024-01-15T01:02:45;99222.09;;;8.72;53.95
62592;BME280;48659;41.622;2.276;2024-01-15T01:05:13;99223.75;;;7.86;54.81
62592;BME280;48659;41.622;2.276;2024-01-15T01:07:41;99230.45;;;8.31;52.19
62592;BME280;48659;41.622;2.276;2024-01-15T01:10:09;99239.38;;;9.98;49.69
62592;BME280;48659;41.622;2.276;2024-01-15T01:12:36;99246.40;;;8.68;51.12
62592;BME280;48659;41.622;2.276;2024-01-15T01:15:05;99253.06;;;8.25;54.00
62592;BME280;48659;41.622;2.276;2024-01-15T01:17:33;99251.21;;;8.79;52.53
62592;BME280;48659;41.622;2.276;2024-01-15T01:20:00;99249.68;;;10.18;50.75
62592;BME280;48659;41.622;2.276;2024-01-15T01:22:28;99242.92;;;10.32;49.39
62592;BME280;48659;41.622;2.276;2024-01-15T01:24:55;99241.75;;;7.54;53.38
62592;BME280;48659;41.622;2.276;2024-01-15T01:27:23;99242.82;;;9.72;50.53
62592;BME280;48659;41.622;2.276;2024-01-15T01:29:51;99247.69;;;9.24;50.36
62592;BME280;48659;41.622;2.276;2024-01-15T01:32:19;99251.01;;;10.72;48.91
62592;BME280;48659;41.622;2.276;2024-01-15T01:34:46;99247.39;;;10.17;47.86
62592;BME280;48659;41.622;2.276;2024-01-15T01:37:14;99243.32;;;10.58;47.66
62592;BME280;48659;41.622;2.276;2024-01-15T01:39:43;99243.15;;;8.61;51.66
62592;BME280;48659;41.622;2.276;2024-01-15T01:42:11;99246.99;;;7.81;53.15
62592;BME280;48659;41.622;2.276;2024-01-15T01:44:39;99248.15;;;9.45;49.70
62592;BME280;48659;41.622;2.276;2024-01-15T01:47:07;99247.23;;;10.30;48.71
62592;BME280;48659;41.622;2.276;2024-01-15T01:49:40;99244.90;;;9.46;48.88
62592;BME280;48659;41.622;2.276;2024-01-15T01:52:09;99239.48;;;9.77;49.04
62592;BME280;48659;41.622;2.276;2024-01-15T01:54:37;99238.66;;;9.80;48.91
62592;BME280;48659;41.622;2.276;2024-01-15T01:57:06;99233.81;;;9.58;49.22
62592;BME280;48659;41.622;2.276;2024-01-15T01:59:35;99234.83;;;9.99;48.82
62592;BME280;48659;41.622;2.276;2024-01-15T02:02:03;99239.35;;;10.81;47.50
62592;BME280;48659;41.622;2.276;2024-01-15T02:04:32;99248.00;;;10.26;48.83
62592;BME280;48659;41.622;2.276;2024-01-15T02:06:59;99245.63;;;10.13;49.22
62592;BME280;48659;41.622;2.276;2024-01-15T02:09:27;99248.25;;;9.79;49.03
62592;BME280;48659;41.622;2.276;2024-01-15T02:11:54;99246.99;;;8.99;50.46
62592;BME280;48659;41.622;2.276;2024-01-15T02:14:21;99246.24;;;9.75;49.42
62592;BME280;48659;41.622;2.276;2024-01-15T02:16:49;99238.69;;;9.21;49.11
62592;BME280;48659;41.622;2.276;2024-01-15T02:19:18;99237.32;;;10.20;49.09
62592;BME280;48659;41.622;2.276;2024-01-15T02:21:45;99236.50;;;9.25;50.22
62592;BME280;48659;41.622;2.276;2024-01-15T02:24:13;99241.52;;;6.89;55.10
62592;BME280;48659;41.622;2.276;2024-01-15T02:26:41;99247.32;;;7.22;54.02
62592;BME280;48659;41.622;2.276;2024-01-15T02:29:09;99246.49;;;8.74;51.92
62592;BME280;48659;41.622;2.276;2024-01-15T02:31:40;99252.18;;;8.84;50.29
62592;BME280;48659;41.622;2.276;2024-01-15T02:34:07;99257.20;;;10.16;49.23
62592;BME280;48659;41.622;2.276;2024-01-15T02:36:34;99257.77;;;9.35;49.85
62592;BME280;48659;41.622;2.276;2024-01-15T02:39:02;99259.51;;;10.38;49.02
62592;BME280;48659;41.622;2.276;2024-01-15T02:41:39;99260.80;;;10.45;49.42
62592;BME280;48659;41.622;2.276;2024-01-15T02:44:06;99251.04;;;10.43;48.57
62592;BME280;48659;41.622;2.276;2024-01-15T02:46:34;99240.07;;;9.83;48.46
62592;BME280;48659;41.622;2.276;2024-01-15T02:49:02;99239.49;;;9.79;48.74
62592;BME280;48659;41.622;2.276;2024-01-15T02:51:42;99233.27;;;10.22;48.43
62592;BME280;48659;41.622;2.276;2024-01-15T02:54:10;99238.37;;;10.12;48.17
62592;BME280;48659;41.622;2.276;2024-01-15T02:56:39;99234.47;;;6.80;53.84
62592;BME280;48659;41.622;2.276;2024-01-15T02:59:06;99227.07;;;9.13;51.85
62592;BME280;48659;41.622;2.276;2024-01-15T03:01:35;99223.76;;;9.09;50.69
62592;BME280;48659;41.622;2.276;2024-01-15T03:04:02;99217.73;;;9.75;50.22
62592;BME280;48659;41.622;2.276;2024-01-15T03:06:29;99216.82;;;9.13;51.33
62592;BME280;48659;41.622;2.276;2024-01-15T03:08:57;99215.46;;;8.99;50.75
62592;BME280;48659;41.622;2.276;2024-01-15T03:11:25;99216.92;;;9.80;50.12
62592;BME280;48659;41.622;2.276;2024-01-15T03:13:53;99214.32;;;8.12;52.35
62592;BME280;48659;41.622;2.276;2024-01-15T03:16:20;99214.84;;;9.63;51.07
62592;BME280;48659;41.622;2.276;2024-01-15T03:18:47;99209.84;;;8.88;51.30
62592;BME280;48659;41.622;2.276;2024-01-15T03:21:15;99202.02;;;9.59;50.58
62592;BME280;48659;41.622;2.276;2024-01-15T03:23:43;99200.66;;;8.63;51.06
62592;BME280;48659;41.622;2.276;2024-01-15T03:26:10;99201.68;;;9.09;51.14
62592;BME280;48659;41.622;2.276;2024-01-15T03:28:38;99196.53;;;8.90;50.61
62592;BME280;48659;41.622;2.276;2024-01-15T03:31:05;99196.89;;;9.15;50.95
62592;BME280;48659;41.622;2.276;2024-01-15T03:33:33;99198.53;;;7.05;57.11
62592;BME280;48659;41.622;2.276;2024-01-15T03:36:00;99197.20;;;8.44;52.86
62592;BME280;48659;41.622;2.276;2024-01-15T03:38:29;99197.30;;;9.17;51.60
62592;BME280;48659;41.622;2.276;2024-01-15T03:40:56;99206.32;;;10.00;50.23
62592;BME280;48659;41.622;2.276;2024-01-15T03:43:23;99204.94;;;9.51;50.72
62592;BME280;48659;41.622;2.276;2024-01-15T03:45:51;99200.58;;;9.37;51.11
62592;BME280;48659;41.622;2.276;2024-01-15T03:48:18;99209.10;;;9.22;51.50
62592;BME280;48659;41.622;2.276;2024-01-15T03:50:45;99208.65;;;9.09;51.38
62592;BME280;48659;41.622;2.276;2024-01-15T03:53:13;99203.89;;;8.77;51.50
62592;BME280;48659;41.622;2.276;2024-01-15T03:55:42;99199.40;;;8.34;52.27
62592;BME280;48659;41.622;2.276;2024-01-15T03:58:10;99193.82;;;9.00;51.96
62592;BME280;48659;41.622;2.276;2024-01-15T04:00:41;99186.72;;;7.55;52.88
62592;BME280;48659;41.622;2.276;2024-01-15T04:03:09;99182.44;;;8.46;52.41
62592;BME280;48659;41.622;2.276;2024-01-15T04:05:38;99181.35;;;7.29;54.14
62592;BME280;48659;41.622;2.276;2024-01-15T04:08:05;99183.66;;;8.44;52.61
62592;BME280;48659;41.622;2.276;2024-01-15T04:10:33;99190.76;;;9.09;51.31
62592;BME280;48659;41.622;2.276;2024-01-15T04:13:01;99199.34;;;8.83;51.37
62592;BME280;48659;41.622;2.276;2024-01-15T04:15:28;99198.02;;;9.24;51.21
62592;BME280;48659;41.622;2.276;2024-01-15T04:17:55;99192.51;;;9.37;50.55
62592;BME280;48659;41.622;2.276;2024-01-15T04:20:23;99193.52;;;9.26;51.34
62592;BME280;48659;41.622;2.276;2024-01-15T04:22:51;99201.11;;;9.18;50.55
62592;BME280;48659;41.622;2.276;2024-01-15T04:25:19;99197.02;;;9.00;51.10
62592;BME280;48659;41.622;2.276;2024-01-15T04:27:47;99189.12;;;9.38;50.70
62592;BME280;48659;41.622;2.276;2024-01-15T04:30:15;99182.66;;;8.77;52.20
62592;BME280;48659;41.622;2.276;2024-01-15T04:32:42;99186.93;;;7.24;53.36
62592;BME280;48659;41.622;2.276;2024-01-15T04:35:10;99192.85;;;9.43;51.52
62592;BME280;48659;41.622;2.276;2024-01-15T04:37:37;99196.63;;;8.02;52.01
62592;BME280;48659;41.622;2.276;2024-01-15T04:40:05;99194.75;;;8.67;52.60
62592;BME280;48659;41.622;2.276;2024-01-15T04:42:33;99197.87;;;8.61;52.03
62592;BME280;48659;41.622;2.276;2024-01-15T04:45:01;99197.34;;;8.17;53.16
62592;BME280;48659;41.622;2.276;2024-01-15T04:47:28;99195.27;;;8.86;51.56
62592;BME280;48659;41.622;2.276;2024-01-15T04:49:56;99200.05;;;8.66;51.44
62592;BME280;48659;41.622;2.276;2024-01-15T04:52:24;99204.88;;;8.44;51.92
62592;BME280;48659;41.622;2.276;2024-01-15T04:54:51;99207.00;;;8.09;51.61
62592;BME280;48659;41.622;2.276;2024-01-15T04:57:19;99203.44;;;8.73;51.37
62592;BME280;48659;41.622;2.276;2024-01-15T04:59:47;99203.75;;;8.22;50.81
62592;BME280;48659;41.622;2.276;2024-01-15T05:02:15;99199.54;;;9.12;51.02
62592;BME280;48659;41.622;2.276;2024-01-15T05:04:43;99200.62;;;7.62;52.42
62592;BME280;48659;41.622;2.276;2024-01-15T05:07:10;99204.50;;;8.93;51.20
62592;BME280;48659;41.622;2.276;2024-01-15T05:09:38;99204.54;;;8.97;50.55
62592;BME280;48659;41.622;2.276;2024-01-15T05:12:05;99203.22;;;8.73;51.54
62592;BME280;48659;41.622;2.276;2024-01-15T05:14:40;99200.46;;;8.64;51.36
62592;BME280;48659;41.622;2.276;2024-01-15T05:17:07;99206.28;;;7.37;53.65
62592;BME280;48659;41.622;2.276;2024-01-15T05:19:35;99203.16;;;7.60;54.00
62592;BME280;48659;41.622;2.276;2024-01-15T05:22:03;99206.95;;;7.39;55.03
62592;BME280;48659;41.622;2.276;2024-01-15T05:24:42;99198.91;;;8.79;52.14
62592;BME280;48659;41.622;2.276;2024-01-15T05:27:09;99189.92;;;7.69;55.05
62592;BME280;48659;41.622;2.276;2024-01-15T05:29:42;99187.71;;;5.71;57.27
62592;BME280;48659;41.622;2.276;2024-01-15T05:32:09;99182.27;;;7.44;55.49
62592;BME280;48659;41.622;2.276;2024-01-15T05:34:41;99179.12;;;6.57;56.43
62592;BME280;48659;41.622;2.276;2024-01-15T05:37:08;99174.78;;;7.59;55.77
62592;BME280;48659;41.622;2.276;2024-01-15T05:39:40;99170.32;;;7.55;54.12
62592;BME280;48659;41.622;2.276;2024-01-15T05:42:07;99173.71;;;8.50;53.40
62592;BME280;48659;41.622;2.276;2024-01-15T05:44:40;99178.67;;;8.10;53.20
62592;BME280;48659;41.622;2.276;2024-01-15T05:47:08;99181.59;;;7.76;53.95
62592;BME280;48659;41.622;2.276;2024-01-15T05:49:36;99174.38;;;8.48;52.71
62592;BME280;48659;41.622;2.276;2024-01-15T05:52:04;99168.87;;;8.37;53.51
62592;BME280;48659;41.622;2.276;2024-01-15T05:54:32;99171.50;;;7.29;55.18
62592;BME280;48659;41.622;2.276;2024-01-15T05:57:00;99173.33;;;8.15;53.51
62592;BME280;48659;41.622;2.276;2024-01-15T05:59:28;99172.57;;;7.99;54.45
62592;BME280;48659;41.622;2.276;2024-01-15T06:01:55;99176.39;;;6.92;55.27
62592;BME280;48659;41.622;2.276;2024-01-15T06:04:22;99179.29;;;7.81;55.05
62592;BME280;48659;41.622;2.276;2024-01-15T06:06:49;99182.99;;;6.60;57.36
62592;BME280;48659;41.622;2.276;2024-01-15T06:09:17;99176.35;;;8.28;55.30
62592;BME280;48659;41.622;2.276;2024-01-15T06:11:44;99172.17;;;8.22;53.99
62592;BME280;48659;41.622;2.276;2024-01-15T06:14:11;99174.87;;;7.91;54.57
62592;BME280;48659;41.622;2.276;2024-01-15T06:16:41;99180.58;;;6.55;55.80
62592;BME280;48659;41.622;2.276;2024-01-15T06:19:08;99179.43;;;7.21;57.54
62592;BME280;48659;41.622;2.276;2024-01-15T06:21:36;99177.74;;;7.23;55.84
62592;BME280;48659;41.622;2.276;2024-01-15T06:24:03;99179.42;;;8.01;55.14
62592;BME280;48659;41.622;2.276;2024-01-15T06:26:39;99180.39;;;7.37;55.56
62592;BME280;48659;41.622;2.276;2024-01-15T06:29:06;99177.15;;;7.48;55.18
62592;BME280;48659;41.622;2.276;2024-01-15T06:31:41;99180.08;;;7.13;54.46
62592;BME280;48659;41.622;2.276;2024-01-15T06:34:08;99174.11;;;7.75;54.03
62592;BME280;48659;41.622;2.276;2024-01-15T06:36:41;99173.59;;;7.81;53.20
62592;BME280;48659;41.622;2.276;2024-01-15T06:39:08;99162.93;;;8.77;52.47
62592;BME280;48659;41.622;2.276;2024-01-15T06:41:49;99166.45;;;8.38;52.37
62592;BME280;48659;41.622;2.276;2024-01-15T06:44:16;99164.07;;;9.06;51.31
62592;BME280;48659;41.622;2.276;2024-01-15T06:46:44;99168.94;;;8.26;52.96
62592;BME280;48659;41.622;2.276;2024-01-15T06:49:12;99164.48;;;8.81;51.36
62592;BME280;48659;41.622;2.276;2024-01-15T06:51:39;99157.40;;;8.11;51.64
62592;BME280;48659;41.622;2.276;2024-01-15T06:54:07;99159.61;;;8.58;51.87
62592;BME280;48659;41.622;2.276;2024-01-15T06:56:41;99160.75;;;7.91;52.13
62592;BME280;48659;41.622;2.276;2024-01-15T06:59:09;99158.61;;;8.74;51.76
62592;BME280;48659;41.622;2.276;2024-01-15T07:01:37;99149.77;;;8.08;52.31
62592;BME280;48659;41.622;2.276;2024-01-15T07:04:04;99147.08;;;7.85;53.23
62592;BME280;48659;41.622;2.276;2024-01-15T07:06:33;99152.76;;;8.72;51.79
62592;BME280;48659;41.622;2.276;2024-01-15T07:09:00;99155.49;;;8.90;50.97
62592;BME280;48659;41.622;2.276;2024-01-15T07:11:28;99154.64;;;8.63;51.34
62592;BME280;48659;41.622;2.276;2024-01-15T07:13:55;99160.46;;;8.20;53.20
62592;BME280;48659;41.622;2.276;2024-01-15T07:16:23;99157.39;;;8.01;52.63
62592;BME280;48659;41.622;2.276;2024-01-15T07:18:51;99152.28;;;9.06;51.23
62592;BME280;48659;41.622;2.276;2024-01-15T07:21:18;99152.70;;;8.49;51.81
62592;BME280;48659;41.622;2.276;2024-01-15T07:23:47;99148.74;;;8.02;50.24
62592;BME280;48659;41.622;2.276;2024-01-15T07:26:14;99151.29;;;8.43;51.35
62592;BME280;48659;41.622;2.276;2024-01-15T07:28:42;99155.36;;;8.15;52.40
62592;BME280;48659;41.622;2.276;2024-01-15T07:31:09;99161.57;;;6.95;54.96
62592;BME280;48659;41.622;2.276;2024-01-15T07:33:41;99163.27;;;7.62;53.42
62592;BME280;48659;41.622;2.276;2024-01-15T07:36:09;99159.92;;;8.60;51.39
62592;BME280;48659;41.622;2.276;2024-01-15T07:38:36;99162.97;;;7.51;54.12
62592;BME280;48659;41.622;2.276;2024-01-15T07:41:04;99163.58;;;8.56;52.46
62592;BME280;48659;41.622;2.276;2024-01-15T07:43:44;99170.98;;;7.77;53.77
62592;BME280;48659;41.622;2.276;2024-01-15T07:46:11;99185.58;;;6.04;57.30
62592;BME280;48659;41.622;2.276;2024-01-15T07:48:39;99187.28;;;7.30;54.43
62592;BME280;48659;41.622;2.276;2024-01-15T07:51:06;99188.18;;;7.85;55.63
62592;BME280;48659;41.622;2.276;2024-01-15T07:53:41;99185.62;;;6.21;57.10
62592;BME280;48659;41.622;2.276;2024-01-15T07:56:09;99195.82;;;7.04;57.01
62592;BME280;48659;41.622;2.276;2024-01-15T07:58:41;99204.62;;;7.97;53.58
62592;BME280;48659;41.622;2.276;2024-01-15T08:01:09;99210.69;;;8.43;53.31
62592;BME280;48659;41.622;2.276;2024-01-15T08:03:41;99213.08;;;7.81;53.15
62592;BME280;48659;41.622;2.276;2024-01-15T08:06:08;99213.03;;;8.82;52.42
62592;BME280;48659;41.622;2.276;2024-01-15T08:08:37;99205.38;;;8.97;51.94
62592;BME280;48659;41.622;2.276;2024-01-15T08:11:05;99205.00;;;9.10;51.72
62592;BME280;48659;41.622;2.276;2024-01-15T08:13:41;99208.30;;;8.64;51.86
62592;BME280;48659;41.622;2.276;2024-01-15T08:16:09;99207.05;;;9.42;52.03
62592;BME280;48659;41.622;2.276;2024-01-15T08:18:42;99213.39;;;9.19;50.94
62592;BME280;48659;41.622;2.276;2024-01-15T08:21:10;99211.31;;;9.03;52.25
62592;BME280;48659;41.622;2.276;2024-01-15T08:23:37;99212.46;;;8.92;52.50
62592;BME280;48659;41.622;2.276;2024-01-15T08:26:05;99215.21;;;8.32;53.62
62592;BME280;48659;41.622;2.276;2024-01-15T08:28:40;99204.61;;;9.38;52.01
62592;BME280;48659;41.622;2.276;2024-01-15T08:31:08;99201.00;;;9.72;51.39
62592;BME280;48659;41.622;2.276;2024-01-15T08:33:40;99197.02;;;8.86;51.76
62592;BME280;48659;41.622;2.276;2024-01-15T08:36:07;99203.16;;;9.98;50.32
62592;BME280;48659;41.622;2.276;2024-01-15T08:38:36;99207.27;;;9.01;51.68
62592;BME280;48659;41.622;2.276;2024-01-15T08:41:04;99205.63;;;10.23;50.65
62592;BME280;48659;41.622;2.276;2024-01-15T08:43:32;99201.89;;;9.99;49.81
62592;BME280;48659;41.622;2.276;2024-01-15T08:46:00;99201.35;;;10.04;50.10
62592;BME280;48659;41.622;2.276;2024-01-15T08:48:28;99205.92;;;10.01;50.39
62592;BME280;48659;41.622;2.276;2024-01-15T08:50:55;99200.64;;;8.85;51.25
62592;BME280;48659;41.622;2.276;2024-01-15T08:53:23;99199.00;;;9.58;51.01
62592;BME280;48659;41.622;2.276;2024-01-15T08:55:51;99200.02;;;6.85;55.93
62592;BME280;48659;41.622;2.276;2024-01-15T08:58:18;99193.13;;;10.01;51.86
62592;BME280;48659;41.622;2.276;2024-01-15T09:00:46;99189.05;;;9.40;50.80
62592;BME280;48659;41.622;2.276;2024-01-15T09:03:13;99189.09;;;10.24;50.39
62592;BME280;48659;41.622;2.276;2024-01-15T09:05:41;99173.17;;;10.12;49.29
62592;BME280;48659;41.622;2.276;2024-01-15T09:08:09;99168.43;;;10.38;49.56
62592;BME280;48659;41.622;2.276;2024-01-15T09:10:46;99173.04;;;10.09;49.06
62592;BME280;48659;41.622;2.276;2024-01-15T09:13:13;99171.95;;;11.16;49.40
62592;BME280;48659;41.622;2.276;2024-01-15T09:15:41;99170.23;;;9.21;50.57
62592;BME280;48659;41.622;2.276;2024-01-15T09:18:09;99164.65;;;10.76;49.01
62592;BME280;48659;41.622;2.276;2024-01-15T09:20:36;99161.70;;;10.55;48.79
62592;BME280;48659;41.622;2.276;2024-01-15T09:23:04;99158.40;;;11.27;48.37
62592;BME280;48659;41.622;2.276;2024-01-15T09:25:32;99157.63;;;11.25;48.66
62592;BME280;48659;41.622;2.276;2024-01-15T09:28:00;99155.17;;;11.35;48.63
62592;BME280;48659;41.622;2.276;2024-01-15T09:30:27;99156.05;;;11.16;49.04
62592;BME280;48659;41.622;2.276;2024-01-15T09:32:55;99165.54;;;8.83;54.06
62592;BME280;48659;41.622;2.276;2024-01-15T09:35:22;99165.89;;;9.30;53.27
62592;BME280;48659;41.622;2.276;2024-01-15T09:37:49;99159.11;;;10.35;49.36
62592;BME280;48659;41.622;2.276;2024-01-15T09:40:17;99171.14;;;10.35;50.71
62592;BME280;48659;41.622;2.276;2024-01-15T09:42:47;99173.75;;;10.46;49.45
62592;BME280;48659;41.622;2.276;2024-01-15T09:45:16;99173.63;;;11.42;48.51
62592;BME280;48659;41.622;2.276;2024-01-15T09:47:44;99174.01;;;11.28;47.54
62592;BME280;48659;41.622;2.276;2024-01-15T09:50:13;99170.42;;;11.37;47.70
62592;BME280;48659;41.622;2.276;2024-01-15T09:52:41;99168.49;;;11.40;47.74
62592;BME280;48659;41.622;2.276;2024-01-15T09:55:09;99168.34;;;11.87;47.95
62592;BME280;48659;41.622;2.276;2024-01-15T09:57:39;99170.99;;;10.71;49.02
62592;BME280;48659;41.622;2.276;2024-01-15T10:00:08;99167.79;;;11.28;49.26
62592;BME280;48659;41.622;2.276;2024-01-15T10:02:42;99176.20;;;11.45;47.81
62592;BME280;48659;41.622;2.276;2024-01-15T10:05:09;99174.03;;;11.70;48.45
62592;BME280;48659;41.622;2.276;2024-01-15T10:07:38;99165.24;;;11.46;48.34
62592;BME280;48659;41.622;2.276;2024-01-15T10:10:06;99161.03;;;12.09;47.46
62592;BME280;48659;41.622;2.276;2024-01-15T10:12:40;99160.35;;;7.87;55.47
62592;BME280;48659;41.622;2.276;2024-01-15T10:15:10;99154.09;;;8.81;58.35
62592;BME280;48659;41.622;2.276;2024-01-15T10:17:40;99151.99;;;8.41;58.98
62592;BME280;48659;41.622;2.276;2024-01-15T10:20:10;99160.08;;;9.98;56.98
62592;BME280;48659;41.622;2.276;2024-01-15T10:22:40;99159.51;;;10.01;53.91
62592;BME280;48659;41.622;2.276;2024-01-15T10:25:10;99160.08;;;11.29;51.86
62592;BME280;48659;41.622;2.276;2024-01-15T10:27:41;99154.39;;;9.71;52.71
62592;BME280;48659;41.622;2.276;2024-01-15T10:30:09;99158.01;;;11.12;50.46
62592;BME280;48659;41.622;2.276;2024-01-15T10:32:41;99164.70;;;10.06;52.74
62592;BME280;48659;41.622;2.276;2024-01-15T10:35:08;99161.72;;;11.27;50.36
62592;BME280;48659;41.622;2.276;2024-01-15T10:37:42;99163.56;;;11.89;48.66
62592;BME280;48659;41.622;2.276;2024-01-15T10:40:10;99163.65;;;12.12;48.03
62592;BME280;48659;41.622;2.276;2024-01-15T10:42:40;99151.01;;;10.60;49.30
62592;BME280;48659;41.622;2.276;2024-01-15T10:45:08;99149.77;;;11.90;48.03
62592;BME280;48659;41.622;2.276;2024-01-15T10:47:42;99146.56;;;12.24;45.81
62592;BME280;48659;41.622;2.276;2024-01-15T10:50:10;99142.77;;;12.79;45.55
62592;BME280;48659;41.622;2.276;2024-01-15T10:52:41;99142.45;;;12.71;45.58
62592;BME280;48659;41.622;2.276;2024-01-15T10:55:09;99144.36;;;13.47;45.13
62592;BME280;48659;41.622;2.276;2024-01-15T10:57:41;99143.65;;;12.84;45.60
62592;BME280;48659;41.622;2.276;2024-01-15T11:00:12;99134.21;;;13.50;44.96
62592;BME280;48659;41.622;2.276;2024-01-15T11:02:42;99127.98;;;13.16;47.50
62592;BME280;48659;41.622;2.276;2024-01-15T11:05:10;99129.68;;;13.51;46.45
62592;BME280;48659;41.622;2.276;2024-01-15T11:07:41;99124.02;;;13.14;45.10
62592;BME280;48659;41.622;2.276;2024-01-15T11:10:45;99115.37;;;13.99;44.91
62592;BME280;48659;41.622;2.276;2024-01-15T11:13:15;99112.00;;;9.24;56.19
62592;BME280;48659;41.622;2.276;2024-01-15T11:15:59;99095.33;;;9.45;57.44
62592;BME280;48659;41.622;2.276;2024-01-15T11:18:29;99106.53;;;10.28;55.11
62592;BME280;48659;41.622;2.276;2024-01-15T11:21:28;99102.93;;;10.40;54.96
62592;BME280;48659;41.622;2.276;2024-01-15T11:23:57;99110.57;;;8.87;58.16
62592;BME280;48659;41.622;2.276;2024-01-15T11:26:30;99113.90;;;9.56;60.48
62592;BME280;48659;41.622;2.276;2024-01-15T11:29:00;99100.91;;;9.39;59.63
62592;BME280;48659;41.622;2.276;2024-01-15T11:31:29;99088.67;;;10.24;57.85
62592;BME280;48659;41.622;2.276;2024-01-15T11:33:56;99080.66;;;10.72;54.79
62592;BME280;48659;41.622;2.276;2024-01-15T11:37:01;99080.08;;;11.68;52.40
62592;BME280;48659;41.622;2.276;2024-01-15T11:39:45;99075.56;;;11.66;51.42
62592;BME280;48659;41.622;2.276;2024-01-15T11:42:13;99076.30;;;10.91;52.59
62592;BME280;48659;41.622;2.276;2024-01-15T11:44:42;99067.12;;;10.71;53.01
62592;BME280;48659;41.622;2.276;2024-01-15T11:47:11;99062.44;;;11.83;51.03
62592;BME280;48659;41.622;2.276;2024-01-15T11:49:56;99060.52;;;10.07;54.46
62592;BME280;48659;41.622;2.276;2024-01-15T11:52:26;99061.67;;;11.35;54.81
62592;BME280;48659;41.622;2.276;2024-01-15T11:55:00;99057.44;;;10.45;57.13
62592;BME280;48659;41.622;2.276;2024-01-15T11:57:34;99052.92;;;10.38;58.10
62592;BME280;48659;41.622;2.276;2024-01-15T12:00:05;99045.61;;;10.61;56.77
62592;BME280;48659;41.622;2.276;2024-01-15T12:02:42;99051.68;;;9.78;57.23
62592;BME280;48659;41.622;2.276;2024-01-15T12:05:12;99038.43;;;11.20;54.73
62592;BME280;48659;41.622;2.276;2024-01-15T12:07:42;99035.68;;;10.07;58.93
62592;BME280;48659;41.622;2.276;2024-01-15T12:10:10;99047.72;;;10.52;59.21
62592;BME280;48659;41.622;2.276;2024-01-15T12:12:52;99041.32;;;9.71;59.10
62592;BME280;48659;41.622;2.276;2024-01-15T12:15:21;99031.45;;;11.64;55.26
62592;BME280;48659;41.622;2.276;2024-01-15T12:17:49;99028.28;;;11.59;53.63
62592;BME280;48659;41.622;2.276;2024-01-15T12:20:17;99024.14;;;13.52;49.26
62592;BME280;48659;41.622;2.276;2024-01-15T12:22:46;99010.14;;;13.42;46.71
62592;BME280;48659;41.622;2.276;2024-01-15T12:25:13;99006.23;;;12.11;50.86
62592;BME280;48659;41.622;2.276;2024-01-15T12:27:40;98998.33;;;11.90;49.90
62592;BME280;48659;41.622;2.276;2024-01-15T12:30:11;98995.41;;;12.60;50.72
62592;BME280;48659;41.622;2.276;2024-01-15T12:32:40;98978.19;;;13.76;46.52
62592;BME280;48659;41.622;2.276;2024-01-15T12:35:08;98977.11;;;13.29;47.46
62592;BME280;48659;41.622;2.276;2024-01-15T12:37:42;98965.41;;;13.15;47.91
62592;BME280;48659;41.622;2.276;2024-01-15T12:40:10;98954.06;;;13.20;47.74
62592;BME280;48659;41.622;2.276;2024-01-15T12:42:41;98962.41;;;11.47;51.07
62592;BME280;48659;41.622;2.276;2024-01-15T12:45:11;98962.53;;;13.01;50.67
62592;BME280;48659;41.622;2.276;2024-01-15T12:47:41;98956.09;;;11.80;51.21
62592;BME280;48659;41.622;2.276;2024-01-15T12:50:10;98953.06;;;12.00;52.11
62592;BME280;48659;41.622;2.276;2024-01-15T12:52:41;98939.42;;;13.51;47.45
62592;BME280;48659;41.622;2.276;2024-01-15T12:55:09;98937.70;;;15.09;44.66
62592;BME280;48659;41.622;2.276;2024-01-15T12:57:40;98940.47;;;15.48;43.41
62592;BME280;48659;41.622;2.276;2024-01-15T13:00:08;98944.96;;;16.16;42.27
62592;BME280;48659;41.622;2.276;2024-01-15T13:02:41;98940.76;;;16.05;42.33
62592;BME280;48659;41.622;2.276;2024-01-15T13:05:10;98946.33;;;16.73;42.37
62592;BME280;48659;41.622;2.276;2024-01-15T13:07:37;98946.79;;;16.70;40.94
62592;BME280;48659;41.622;2.276;2024-01-15T13:10:05;98942.31;;;16.90;41.36
62592;BME280;48659;41.622;2.276;2024-01-15T13:12:41;98937.49;;;16.99;40.70
62592;BME280;48659;41.622;2.276;2024-01-15T13:15:09;98931.37;;;17.36;42.03
62592;BME280;48659;41.622;2.276;2024-01-15T13:17:43;98929.88;;;17.02;40.82